createdAt,value
2023-05-21T00:02:45.481Z,11.69
2023-05-21T00:05:31.540Z,11.73
2023-05-21T00:08:17.491Z,11.66
2023-05-21T00:11:03.494Z,11.66
2023-05-21T00:13:49.377Z,11.80
2023-05-21T00:16:35.310Z,11.76
2023-05-21T00:19:21.538Z,11.50
2023-05-21T00:22:07.716Z,11.59
2023-05-21T00:24:53.805Z,11.85
2023-05-21T00:27:39.713Z,11.57
2023-05-21T00:30:25.789Z,11.47
2023-05-21T00:33:11.712Z,11.39
2023-05-21T00:35:57.565Z,11.42
2023-05-21T00:38:43.610Z,11.12
2023-05-21T00:41:29.573Z,10.81
2023-05-21T00:44:15.642Z,11.66
2023-05-21T00:47:01.619Z,11.83
2023-05-21T00:49:47.654Z,12.09
2023-05-21T00:52:33.475Z,12.35
2023-05-21T00:55:21.506Z,11.99
2023-05-21T00:58:07.433Z,12.19
2023-05-21T01:00:53.380Z,12.20
2023-05-21T01:03:39.394Z,12.37
2023-05-21T01:06:25.313Z,12.93
2023-05-21T01:09:11.388Z,13.54
2023-05-21T01:11:57.336Z,13.38
2023-05-21T01:14:43.056Z,13.26
2023-05-21T01:17:28.984Z,13.40
2023-05-21T01:20:16.808Z,13.12
2023-05-21T01:23:02.685Z,13.50
2023-05-21T01:25:48.558Z,13.37
2023-05-21T01:28:34.473Z,12.70
2023-05-21T01:31:20.498Z,12.88
2023-05-21T01:34:06.636Z,13.18
2023-05-21T01:36:52.977Z,12.62
2023-05-21T01:39:38.788Z,12.34
2023-05-21T01:42:24.832Z,12.44
2023-05-21T01:45:10.730Z,12.31
2023-05-21T01:47:56.725Z,11.56
2023-05-21T01:50:42.812Z,11.74
2023-05-21T01:53:28.859Z,11.49
2023-05-21T01:56:14.812Z,11.59
2023-05-21T01:59:00.672Z,12.33
2023-05-21T02:01:46.667Z,12.32
2023-05-21T02:04:32.944Z,12.40
2023-05-21T02:07:18.900Z,12.14
2023-05-21T02:10:04.813Z,12.41
2023-05-21T02:12:51.139Z,12.52
2023-05-21T02:15:37.362Z,12.30
2023-05-21T02:18:23.851Z,12.29
2023-05-21T02:21:09.667Z,12.92
2023-05-21T02:23:55.672Z,13.24
2023-05-21T02:26:41.706Z,13.05
2023-05-21T02:29:27.676Z,13.63
2023-05-21T02:32:14.034Z,13.63
2023-05-21T02:34:59.908Z,13.25
2023-05-21T02:37:45.750Z,12.69
2023-05-21T02:40:31.551Z,13.17
2023-05-21T02:43:17.363Z,13.11
2023-05-21T02:46:03.450Z,13.25
2023-05-21T02:48:49.679Z,12.76
2023-05-21T02:51:35.889Z,12.57
2023-05-21T02:54:21.822Z,13.54
2023-05-21T02:57:07.861Z,13.19
2023-05-21T02:59:53.902Z,12.63
2023-05-21T03:02:39.930Z,12.70
2023-05-21T03:05:26.151Z,12.45
2023-05-21T03:08:14.218Z,12.85
2023-05-21T03:11:00.286Z,12.52
2023-05-21T03:13:46.252Z,13.10
2023-05-21T03:16:32.340Z,12.91
2023-05-21T03:19:18.381Z,13.43
2023-05-21T03:22:04.225Z,12.92
2023-05-21T03:24:50.240Z,12.88
2023-05-21T03:27:36.131Z,12.32
2023-05-21T03:30:22.027Z,11.59
2023-05-21T03:33:08.002Z,11.89
2023-05-21T03:35:54.344Z,11.78
2023-05-21T03:38:40.318Z,11.91
2023-05-21T03:41:26.344Z,12.55
2023-05-21T03:44:12.275Z,12.48
2023-05-21T03:46:58.322Z,12.25
2023-05-21T03:49:44.221Z,11.90
2023-05-21T03:52:30.241Z,11.76
2023-05-21T03:55:16.202Z,11.80
2023-05-21T03:58:02.098Z,11.64
2023-05-21T04:00:48.206Z,11.50
2023-05-21T04:03:34.399Z,11.51
2023-05-21T04:06:20.798Z,12.15
2023-05-21T04:09:06.952Z,12.54
2023-05-21T04:11:52.977Z,12.38
2023-05-21T04:14:38.912Z,12.46
2023-05-21T04:17:24.857Z,12.87
2023-05-21T04:20:10.724Z,12.92
2023-05-21T04:22:56.839Z,12.80
2023-05-21T04:25:42.891Z,12.55
2023-05-21T04:28:28.962Z,12.73
2023-05-21T04:31:15.382Z,12.73
2023-05-21T04:34:01.337Z,12.87
2023-05-21T04:36:47.206Z,12.89
2023-05-21T04:39:33.211Z,13.25
2023-05-21T04:42:19.128Z,12.81
2023-05-21T04:45:05.179Z,13.08
2023-05-21T04:47:51.138Z,13.04
2023-05-21T04:50:37.285Z,13.50
2023-05-21T04:53:23.368Z,13.20
2023-05-21T04:56:09.176Z,13.06
2023-05-21T04:58:55.065Z,13.16
2023-05-21T05:01:41.021Z,13.27
2023-05-21T05:04:26.842Z,14.04
2023-05-21T05:07:12.852Z,14.53
2023-05-21T05:09:58.848Z,14.58
2023-05-21T05:12:44.774Z,14.30
2023-05-21T05:15:30.778Z,14.28
2023-05-21T05:18:17.855Z,14.78
2023-05-21T05:21:05.692Z,15.54
2023-05-21T05:23:51.657Z,16.10
2023-05-21T05:26:37.506Z,16.43
2023-05-21T05:29:23.282Z,16.39
2023-05-21T05:32:09.257Z,16.50
2023-05-21T05:34:55.197Z,16.80
2023-05-21T05:37:41.161Z,16.48
2023-05-21T05:40:27.025Z,16.70
2023-05-21T05:43:12.883Z,16.46
2023-05-21T05:45:58.797Z,16.40
2023-05-21T05:48:44.653Z,16.37
2023-05-21T05:51:30.611Z,16.34
2023-05-21T05:54:16.573Z,16.59
2023-05-21T05:57:02.368Z,17.13
2023-05-21T05:59:48.431Z,17.52
2023-05-21T06:02:34.473Z,17.87
2023-05-21T06:05:20.617Z,17.96
2023-05-21T06:08:06.611Z,17.91
2023-05-21T06:10:52.444Z,17.99
2023-05-21T06:13:38.359Z,17.55
2023-05-21T06:16:24.377Z,17.00
2023-05-21T06:19:10.249Z,17.10
2023-05-21T06:21:56.286Z,16.43
2023-05-21T06:24:42.247Z,15.70
2023-05-21T06:27:28.081Z,15.30
2023-05-21T06:30:14.039Z,15.74
2023-05-21T06:33:00.138Z,15.97
2023-05-21T06:35:46.390Z,16.19
2023-05-21T06:38:32.463Z,15.64
2023-05-21T06:41:18.298Z,15.84
2023-05-21T06:44:04.382Z,14.80
2023-05-21T06:46:50.310Z,15.10
2023-05-21T06:49:36.114Z,16.25
2023-05-21T06:52:22.176Z,15.39
2023-05-21T06:55:08.085Z,16.09
2023-05-21T06:57:54.034Z,16.35
2023-05-21T07:00:39.919Z,16.84
2023-05-21T07:03:25.904Z,17.12
2023-05-21T07:06:12.345Z,16.46
2023-05-21T07:08:58.433Z,16.58
2023-05-21T07:11:44.391Z,17.08
2023-05-21T07:14:32.238Z,17.44
2023-05-21T07:17:18.267Z,17.69
2023-05-21T07:20:04.197Z,17.65
2023-05-21T07:22:50.196Z,17.00
2023-05-21T07:25:36.333Z,16.24
2023-05-21T07:28:22.411Z,16.11
2023-05-21T07:31:08.468Z,16.00
2023-05-21T07:33:54.826Z,15.98
2023-05-21T07:36:40.724Z,16.13
2023-05-21T07:39:27.009Z,16.21
2023-05-21T07:42:12.796Z,15.42
2023-05-21T07:44:58.817Z,15.94
2023-05-21T07:47:44.681Z,16.39
2023-05-21T07:50:30.747Z,16.33
2023-05-21T07:53:16.736Z,17.10
2023-05-21T07:56:02.722Z,16.96
2023-05-21T07:58:48.756Z,17.44
2023-05-21T08:01:34.794Z,16.68
2023-05-21T08:04:20.890Z,16.73
2023-05-21T08:07:06.778Z,16.98
2023-05-21T08:09:52.687Z,16.03
2023-05-21T08:12:38.595Z,16.64
2023-05-21T08:15:24.612Z,16.37
2023-05-21T08:18:10.587Z,16.92
2023-05-21T08:20:57.083Z,16.27
2023-05-21T08:23:43.146Z,16.40
2023-05-21T08:26:28.946Z,16.90
2023-05-21T08:29:14.905Z,16.66
2023-05-21T08:32:00.816Z,16.23
2023-05-21T08:34:46.702Z,16.60
2023-05-21T08:37:32.602Z,16.67
2023-05-21T08:40:18.328Z,16.88
2023-05-21T08:43:04.338Z,17.00
2023-05-21T08:45:50.378Z,17.04
2023-05-21T08:48:36.308Z,16.89
2023-05-21T08:51:22.266Z,16.24
2023-05-21T08:54:08.419Z,16.58
2023-05-21T08:56:54.403Z,16.40
2023-05-21T08:59:40.399Z,16.56
2023-05-21T09:02:26.247Z,17.29
2023-05-21T09:05:12.216Z,17.39
2023-05-21T09:07:58.317Z,18.21
2023-05-21T09:10:44.282Z,18.32
2023-05-21T09:13:30.297Z,18.54
2023-05-21T09:16:16.242Z,17.82
2023-05-21T09:19:04.322Z,17.26
2023-05-21T09:21:50.859Z,17.74
2023-05-21T09:24:36.688Z,17.49
2023-05-21T09:27:22.628Z,16.43
2023-05-21T09:30:08.690Z,17.43
2023-05-21T09:32:54.571Z,18.22
2023-05-21T09:35:40.595Z,17.00
2023-05-21T09:38:26.477Z,18.01
2023-05-21T09:41:12.326Z,17.74
2023-05-21T09:43:58.296Z,17.64
2023-05-21T09:46:44.355Z,17.45
2023-05-21T09:49:30.438Z,17.22
2023-05-21T09:52:16.424Z,17.41
2023-05-21T09:55:02.491Z,18.03
2023-05-21T09:57:50.490Z,19.02
2023-05-21T10:00:37.037Z,18.36
2023-05-21T10:03:23.348Z,18.26
2023-05-21T10:06:09.428Z,19.00
2023-05-21T10:08:55.534Z,19.60
2023-05-21T10:11:41.538Z,19.41
2023-05-21T10:14:27.598Z,18.62
2023-05-21T10:17:13.442Z,18.61
2023-05-21T10:19:59.233Z,19.30
2023-05-21T10:22:45.190Z,19.12
2023-05-21T10:25:31.101Z,19.79
2023-05-21T10:28:17.333Z,18.75
2023-05-21T10:31:03.337Z,18.84
2023-05-21T10:33:49.194Z,17.58
2023-05-21T10:36:35.078Z,18.90
2023-05-21T10:39:21.037Z,17.38
2023-05-21T10:42:07.014Z,18.58
2023-05-21T10:44:53.023Z,19.15
2023-05-21T10:47:40.964Z,18.32
2023-05-21T10:50:26.869Z,18.93
2023-05-21T10:53:12.949Z,18.51
2023-05-21T10:55:58.806Z,18.83
2023-05-21T10:58:44.767Z,18.91
2023-05-21T11:01:30.781Z,19.37
2023-05-21T11:04:16.700Z,19.42
2023-05-21T11:07:02.636Z,19.86
2023-05-21T11:09:48.582Z,18.74
2023-05-21T11:12:34.477Z,19.08
2023-05-21T11:15:20.476Z,19.25
2023-05-21T11:18:06.319Z,18.88
2023-05-21T11:20:52.424Z,19.14
2023-05-21T11:23:38.482Z,18.70
2023-05-21T11:26:24.365Z,18.79
2023-05-21T11:29:10.232Z,18.75
2023-05-21T11:31:56.139Z,19.11
2023-05-21T11:34:42.010Z,19.87
2023-05-21T11:37:28.016Z,19.43
2023-05-21T11:40:13.902Z,19.34
2023-05-21T11:42:59.945Z,19.37
2023-05-21T11:45:45.949Z,18.95
2023-05-21T11:48:32.522Z,18.88
2023-05-21T11:51:18.650Z,19.28
2023-05-21T11:54:04.591Z,19.69
2023-05-21T11:56:50.656Z,19.75
2023-05-21T11:59:36.653Z,20.16
2023-05-21T12:02:22.588Z,20.13
2023-05-21T12:05:09.749Z,20.04
2023-05-21T12:07:56.790Z,20.23
2023-05-21T12:10:44.379Z,19.25
2023-05-21T12:13:31.572Z,19.63
2023-05-21T12:16:17.656Z,19.62
2023-05-21T12:19:03.916Z,20.75
2023-05-21T12:21:49.929Z,20.58
2023-05-21T12:24:35.960Z,20.21
2023-05-21T12:27:21.909Z,19.47
2023-05-21T12:30:07.977Z,20.14
2023-05-21T12:32:54.006Z,19.79
2023-05-21T12:35:40.390Z,19.55
2023-05-21T12:38:26.257Z,20.26
2023-05-21T12:41:12.084Z,20.35
2023-05-21T12:43:58.013Z,21.21
2023-05-21T12:46:43.938Z,21.05
2023-05-21T12:49:29.815Z,21.37
2023-05-21T12:52:15.732Z,21.16
2023-05-21T12:55:01.796Z,20.99
2023-05-21T12:57:49.758Z,20.47
2023-05-21T13:00:36.095Z,20.79
2023-05-21T13:03:22.543Z,19.60
2023-05-21T13:06:08.520Z,20.24
2023-05-21T13:08:54.425Z,19.87
2023-05-21T13:11:40.458Z,21.02
2023-05-21T13:14:26.429Z,21.17
2023-05-21T13:17:12.318Z,21.43
2023-05-21T13:19:58.277Z,21.44
2023-05-21T13:22:44.386Z,21.37
2023-05-21T13:25:30.263Z,21.09
2023-05-21T13:28:16.265Z,21.02
2023-05-21T13:31:02.255Z,20.79
2023-05-21T13:33:48.253Z,20.54
2023-05-21T13:36:34.267Z,21.66
2023-05-21T13:39:20.238Z,22.12
2023-05-21T13:42:06.106Z,21.40
2023-05-21T13:44:52.070Z,21.22
2023-05-21T13:47:40.278Z,22.15
2023-05-21T13:50:26.547Z,22.46
2023-05-21T13:53:12.613Z,22.48
2023-05-21T13:55:58.536Z,21.98
2023-05-21T13:58:44.338Z,21.53
2023-05-21T14:01:30.330Z,21.82
2023-05-21T14:04:16.600Z,21.59
2023-05-21T14:07:02.546Z,21.53
2023-05-21T14:09:48.461Z,22.68
2023-05-21T14:12:34.301Z,22.41
2023-05-21T14:15:20.349Z,21.82
2023-05-21T14:18:06.193Z,22.35
2023-05-21T14:20:52.091Z,22.26
2023-05-21T14:23:38.108Z,20.57
2023-05-21T14:26:24.109Z,20.85
2023-05-21T14:29:10.122Z,21.34
2023-05-21T14:31:56.127Z,21.66
2023-05-21T14:34:42.015Z,21.34
2023-05-21T14:37:27.920Z,21.19
2023-05-21T14:40:13.813Z,21.39
2023-05-21T14:42:59.593Z,21.92
2023-05-21T14:45:46.616Z,22.38
2023-05-21T14:48:32.765Z,22.97
2023-05-21T14:51:19.051Z,23.86
2023-05-21T14:54:04.948Z,23.40
2023-05-21T14:56:50.840Z,22.65
2023-05-21T14:59:36.738Z,23.04
2023-05-21T15:02:22.770Z,23.13
2023-05-21T15:05:08.603Z,23.35
2023-05-21T15:07:54.573Z,23.19
2023-05-21T15:10:40.462Z,22.33
2023-05-21T15:13:26.447Z,22.26
2023-05-21T15:16:12.510Z,22.44
2023-05-21T15:18:58.412Z,22.25
2023-05-21T15:21:44.655Z,22.36
2023-05-21T15:24:30.620Z,23.49
2023-05-21T15:27:16.541Z,24.33
2023-05-21T15:30:02.547Z,24.33
2023-05-21T15:32:48.862Z,24.00
2023-05-21T15:35:35.084Z,24.26
2023-05-21T15:38:21.334Z,24.72
2023-05-21T15:41:07.181Z,22.96
2023-05-21T15:43:53.077Z,22.58
2023-05-21T15:46:39.061Z,22.05
2023-05-21T15:49:25.252Z,21.95
2023-05-21T15:52:11.127Z,22.15
2023-05-21T15:54:57.083Z,22.02
2023-05-21T15:57:42.981Z,21.82
2023-05-21T16:00:28.880Z,21.94
2023-05-21T16:03:15.184Z,21.57
2023-05-21T16:06:01.750Z,21.29
2023-05-21T16:08:47.757Z,21.85
2023-05-21T16:11:33.745Z,21.89
2023-05-21T16:14:19.589Z,21.90
2023-05-21T16:17:05.670Z,22.23
2023-05-21T16:19:51.829Z,22.48
2023-05-21T16:22:37.697Z,22.02
2023-05-21T16:25:23.504Z,22.01
2023-05-21T16:28:09.437Z,22.46
2023-05-21T16:30:55.370Z,21.56
2023-05-21T16:33:41.224Z,22.15
2023-05-21T16:36:27.185Z,22.70
2023-05-21T16:39:12.986Z,23.27
2023-05-21T16:41:58.842Z,22.52
2023-05-21T16:44:45.062Z,23.40
2023-05-21T16:47:31.026Z,23.00
2023-05-21T16:50:16.919Z,23.37
2023-05-21T16:53:02.831Z,21.98
2023-05-21T16:55:48.549Z,21.78
2023-05-21T16:58:34.647Z,21.79
2023-05-21T17:01:20.544Z,23.05
2023-05-21T17:04:06.872Z,23.15
2023-05-21T17:06:53.098Z,21.90
2023-05-21T17:09:38.983Z,22.26
2023-05-21T17:12:24.909Z,22.29
2023-05-21T17:15:10.892Z,21.61
2023-05-21T17:17:58.648Z,21.80
2023-05-21T17:20:44.991Z,21.46
2023-05-21T17:23:30.940Z,22.25
2023-05-21T17:26:16.971Z,22.05
2023-05-21T17:29:02.869Z,21.33
2023-05-21T17:31:48.902Z,21.31
2023-05-21T17:34:35.144Z,20.83
2023-05-21T17:37:21.076Z,22.05
2023-05-21T17:40:06.860Z,21.98
2023-05-21T17:42:52.898Z,22.34
2023-05-21T17:45:38.981Z,22.37
2023-05-21T17:48:25.058Z,22.54
2023-05-21T17:51:10.970Z,22.52
2023-05-21T17:53:56.844Z,22.77
2023-05-21T17:56:45.538Z,23.18
2023-05-21T17:59:32.362Z,23.13
2023-05-21T18:02:18.201Z,23.39
2023-05-21T18:05:04.263Z,23.67
2023-05-21T18:07:50.054Z,23.61
2023-05-21T18:10:35.928Z,23.83
2023-05-21T18:13:21.866Z,23.93
2023-05-21T18:16:07.904Z,23.96
2023-05-21T18:18:53.854Z,24.28
2023-05-21T18:21:39.862Z,24.44
2023-05-21T18:24:25.826Z,24.54
2023-05-21T18:27:11.767Z,22.86
2023-05-21T18:29:57.788Z,22.39
2023-05-21T18:32:43.904Z,21.75
2023-05-21T18:35:29.974Z,20.72
2023-05-21T18:38:15.984Z,20.69
2023-05-21T18:41:01.859Z,21.21
2023-05-21T18:43:47.795Z,20.97
2023-05-21T18:46:33.708Z,20.52
2023-05-21T18:49:19.589Z,20.71
2023-05-21T18:52:05.528Z,21.10
2023-05-21T18:54:51.487Z,21.13
2023-05-21T18:57:37.381Z,20.97
2023-05-21T19:00:23.294Z,20.25
2023-05-21T19:03:09.106Z,19.52
2023-05-21T19:05:55.181Z,18.96
2023-05-21T19:08:41.079Z,18.55
2023-05-21T19:11:26.997Z,18.40
2023-05-21T19:14:12.901Z,18.24
2023-05-21T19:16:58.742Z,18.23
2023-05-21T19:19:44.750Z,18.30
2023-05-21T19:22:30.755Z,18.36
2023-05-21T19:25:16.767Z,18.26
2023-05-21T19:28:02.792Z,18.39
2023-05-21T19:30:48.710Z,18.20
2023-05-21T19:33:34.695Z,18.14
2023-05-21T19:36:21.048Z,18.20
2023-05-21T19:39:06.840Z,18.43
2023-05-21T19:41:52.897Z,19.05
2023-05-21T19:44:38.898Z,18.99
2023-05-21T19:47:24.727Z,19.23
2023-05-21T19:50:10.877Z,19.38
2023-05-21T19:52:56.714Z,18.12
2023-05-21T19:55:42.674Z,17.32
2023-05-21T19:58:28.601Z,16.98
2023-05-21T20:01:14.600Z,16.99
2023-05-21T20:04:00.709Z,17.15
2023-05-21T20:06:46.890Z,16.35
2023-05-21T20:09:32.794Z,16.12
2023-05-21T20:12:18.699Z,16.04
2023-05-21T20:15:04.606Z,15.99
2023-05-21T20:17:50.619Z,16.01
2023-05-21T20:20:37.167Z,16.32
2023-05-21T20:23:23.214Z,16.47
2023-05-21T20:26:09.222Z,16.66
2023-05-21T20:28:55.217Z,15.67
2023-05-21T20:31:41.082Z,15.93
2023-05-21T20:34:27.184Z,16.07
2023-05-21T20:37:13.442Z,16.13
2023-05-21T20:39:59.301Z,16.33
2023-05-21T20:42:45.319Z,15.74
2023-05-21T20:45:31.211Z,15.89
2023-05-21T20:48:17.130Z,15.73
2023-05-21T20:51:03.202Z,15.35
2023-05-21T20:53:49.080Z,15.23
2023-05-21T20:56:42.312Z,14.97
2023-05-21T20:59:29.125Z,14.63
2023-05-21T21:02:15.111Z,14.63
2023-05-21T21:05:01.117Z,14.49
2023-05-21T21:07:47.087Z,14.60
2023-05-21T21:10:33.009Z,14.59
2023-05-21T21:13:18.882Z,14.40
2023-05-21T21:16:04.822Z,14.40
2023-05-21T21:18:50.662Z,14.50
2023-05-21T21:21:38.159Z,14.43
2023-05-21T21:24:24.017Z,14.34
2023-05-21T21:27:12.058Z,14.34
2023-05-21T21:29:58.248Z,14.31
2023-05-21T21:32:44.311Z,14.41
2023-05-21T21:35:30.091Z,14.55
2023-05-21T21:38:15.961Z,14.63
2023-05-21T21:41:01.820Z,14.52
2023-05-21T21:43:47.888Z,14.51
2023-05-21T21:46:34.100Z,14.51
2023-05-21T21:49:20.110Z,14.44
2023-05-21T21:52:06.110Z,14.33
2023-05-21T21:54:52.187Z,14.39
2023-05-21T21:57:40.118Z,14.51
2023-05-21T22:00:25.988Z,14.54
2023-05-21T22:03:14.454Z,14.64
2023-05-21T22:06:00.933Z,14.76
2023-05-21T22:08:47.039Z,14.70
2023-05-21T22:11:33.299Z,14.66
2023-05-21T22:14:19.078Z,14.71
2023-05-21T22:17:05.156Z,14.87
2023-05-21T22:19:51.238Z,15.13
2023-05-21T22:22:36.978Z,15.38
2023-05-21T22:25:22.878Z,15.56
2023-05-21T22:28:08.874Z,15.42
2023-05-21T22:30:54.760Z,15.56
2023-05-21T22:33:40.763Z,15.31
2023-05-21T22:36:26.650Z,15.12
2023-05-21T22:39:12.678Z,15.15
2023-05-21T22:41:58.626Z,15.60
2023-05-21T22:44:44.449Z,15.83
2023-05-21T22:47:30.476Z,16.46
2023-05-21T22:50:16.347Z,16.68
2023-05-21T22:53:02.411Z,17.01
2023-05-21T22:55:48.328Z,17.06
2023-05-21T22:58:36.265Z,16.31
2023-05-21T23:01:22.381Z,15.88
2023-05-21T23:04:08.340Z,15.53
2023-05-21T23:06:54.169Z,15.39
2023-05-21T23:09:40.080Z,15.21
2023-05-21T23:12:25.966Z,15.23
2023-05-21T23:15:11.847Z,15.05
2023-05-21T23:17:58.009Z,15.03
2023-05-21T23:20:43.947Z,14.90
2023-05-21T23:23:29.888Z,14.65
2023-05-21T23:26:15.952Z,14.78
2023-05-21T23:29:01.764Z,15.07
2023-05-21T23:31:47.699Z,15.48
2023-05-21T23:34:33.517Z,15.82
2023-05-21T23:37:19.432Z,15.82
2023-05-21T23:40:05.508Z,15.52
2023-05-21T23:42:51.369Z,16.09
2023-05-21T23:45:37.341Z,16.21
2023-05-21T23:48:23.507Z,16.74
2023-05-21T23:51:09.421Z,16.85
2023-05-21T23:53:55.293Z,15.80
2023-05-21T23:56:41.307Z,15.58
2023-05-21T23:59:27.111Z,15.43
